sensor_id;sensor_type;location;lat;lon;timestamp;pressure;altitude;pressure_sealevel;temperature;humidity
10618;BME280;5356;43.526;26.534;2022-08-21T00:00:26;98469.31;;;25.74;100.00
10618;BME280;5356;43.526;26.534;2022-08-21T00:03:03;98465.00;;;25.73;100.00
10618;BME280;5356;43.526;26.534;2022-08-21T00:05:31;98463.88;;;25.74;100.00
10618;BME280;5356;43.526;26.534;2022-08-21T00:07:57;98472.59;;;25.67;100.00
10618;BME280;5356;43.526;26.534;2022-08-21T00:10:23;98472.81;;;25.62;100.00
10618;BME280;5356;43.526;26.534;2022-08-21T00:12:49;98474.97;;;25.57;100.00
10618;BME280;5356;43.526;26.534;2022-08-21T00:15:21;98475.56;;;25.62;100.00
10618;BME280;5356;43.526;26.534;2022-08-21T00:17:47;98472.16;;;25.65;100.00
10618;BME280;5356;43.526;26.534;2022-08-21T00:20:15;98464.09;;;25.69;100.00
10618;BME280;5356;43.526;26.534;2022-08-21T00:22:41;98471.81;;;25.67;100.00
10618;BME280;5356;43.526;26.534;2022-08-21T00:25:08;98474.88;;;25.65;100.00
10618;BME280;5356;43.526;26.534;2022-08-21T00:27:34;98455.78;;;25.65;100.00
10618;BME280;5356;43.526;26.534;2022-08-21T00:30:02;98455.22;;;25.72;100.00
10618;BME280;5356;43.526;26.534;2022-08-21T00:32:28;98447.97;;;25.76;100.00
10618;BME280;5356;43.526;26.534;2022-08-21T00:34:54;98447.72;;;25.81;100.00
10618;BME280;5356;43.526;26.534;2022-08-21T00:37:19;98444.41;;;25.75;100.00
10618;BME280;5356;43.526;26.534;2022-08-21T00:39:45;98442.72;;;25.71;100.00
10618;BME280;5356;43.526;26.534;2022-08-21T00:42:12;98452.69;;;25.67;100.00
10618;BME280;5356;43.526;26.534;2022-08-21T00:44:45;98452.38;;;25.68;100.00
10618;BME280;5356;43.526;26.534;2022-08-21T00:47:11;98453.81;;;25.53;100.00
10618;BME280;5356;43.526;26.534;2022-08-21T00:49:38;98445.28;;;25.55;100.00
10618;BME280;5356;43.526;26.534;2022-08-21T00:52:05;98445.28;;;25.55;100.00
10618;BME280;5356;43.526;26.534;2022-08-21T00:54:32;98443.16;;;25.61;100.00
10618;BME280;5356;43.526;26.534;2022-08-21T00:57:01;98444.88;;;25.65;100.00
10618;BME280;5356;43.526;26.534;2022-08-21T00:59:29;98443.72;;;25.66;100.00
10618;BME280;5356;43.526;26.534;2022-08-21T01:01:57;98430.19;;;25.70;100.00
10618;BME280;5356;43.526;26.534;2022-08-21T01:04:23;98429.41;;;25.69;100.00
10618;BME280;5356;43.526;26.534;2022-08-21T01:06:49;98430.91;;;25.79;100.00
10618;BME280;5356;43.526;26.534;2022-08-21T01:09:16;98423.16;;;25.81;100.00
10618;BME280;5356;43.526;26.534;2022-08-21T01:11:44;98428.78;;;25.85;100.00
10618;BME280;5356;43.526;26.534;2022-08-21T01:14:11;98422.19;;;25.86;100.00
10618;BME280;5356;43.526;26.534;2022-08-21T01:16:39;98418.31;;;25.87;100.00
10618;BME280;5356;43.526;26.534;2022-08-21T01:19:07;98418.31;;;25.87;100.00
10618;BME280;5356;43.526;26.534;2022-08-21T01:21:33;98407.84;;;25.76;100.00
10618;BME280;5356;43.526;26.534;2022-08-21T01:23:59;98403.75;;;25.70;100.00
10618;BME280;5356;43.526;26.534;2022-08-21T01:26:28;98408.25;;;25.66;100.00
10618;BME280;5356;43.526;26.534;2022-08-21T01:31:22;98401.06;;;25.62;100.00
10618;BME280;5356;43.526;26.534;2022-08-21T01:33:48;98400.28;;;25.61;100.00
10618;BME280;5356;43.526;26.534;2022-08-21T01:36:14;98404.16;;;25.60;100.00
10618;BME280;5356;43.526;26.534;2022-08-21T01:38:39;98397.53;;;25.49;100.00
10618;BME280;5356;43.526;26.534;2022-08-21T01:41:05;98393.19;;;25.36;100.00
10618;BME280;5356;43.526;26.534;2022-08-21T01:43:30;98398.31;;;25.37;100.00
10618;BME280;5356;43.526;26.534;2022-08-21T01:45:56;98401.94;;;25.41;100.00
10618;BME280;5356;43.526;26.534;2022-08-21T01:48:21;98390.94;;;25.38;100.00
10618;BME280;5356;43.526;26.534;2022-08-21T01:50:47;98393.31;;;25.39;100.00
10618;BME280;5356;43.526;26.534;2022-08-21T01:53:12;98400.69;;;25.39;100.00
10618;BME280;5356;43.526;26.534;2022-08-21T01:55:41;98398.66;;;25.36;100.00
10618;BME280;5356;43.526;26.534;2022-08-21T01:58:07;98399.31;;;25.33;100.00
10618;BME280;5356;43.526;26.534;2022-08-21T02:00:32;98397.75;;;25.31;100.00
10618;BME280;5356;43.526;26.534;2022-08-21T02:02:58;98395.00;;;25.31;100.00
10618;BME280;5356;43.526;26.534;2022-08-21T02:05:23;98391.59;;;25.14;100.00
10618;BME280;5356;43.526;26.534;2022-08-21T02:07:51;98390.97;;;24.96;100.00
10618;BME280;5356;43.526;26.534;2022-08-21T02:10:22;98386.75;;;24.86;100.00
10618;BME280;5356;43.526;26.534;2022-08-21T02:12:47;98382.78;;;24.83;100.00
10618;BME280;5356;43.526;26.534;2022-08-21T02:15:13;98379.09;;;24.79;100.00
10618;BME280;5356;43.526;26.534;2022-08-21T02:17:46;98381.56;;;24.72;100.00
10618;BME280;5356;43.526;26.534;2022-08-21T02:20:26;98383.69;;;24.67;100.00
10618;BME280;5356;43.526;26.534;2022-08-21T02:22:52;98389.63;;;24.69;100.00
10618;BME280;5356;43.526;26.534;2022-08-21T02:25:20;98395.38;;;24.67;100.00
10618;BME280;5356;43.526;26.534;2022-08-21T02:27:47;98390.59;;;24.64;100.00
10618;BME280;5356;43.526;26.534;2022-08-21T02:30:24;98391.00;;;24.54;100.00
10618;BME280;5356;43.526;26.534;2022-08-21T02:32:50;98389.16;;;24.37;100.00
10618;BME280;5356;43.526;26.534;2022-08-21T02:35:15;98401.59;;;24.17;100.00
10618;BME280;5356;43.526;26.534;2022-08-21T02:37:49;98392.66;;;24.16;100.00
10618;BME280;5356;43.526;26.534;2022-08-21T02:40:17;98382.44;;;24.13;100.00
10618;BME280;5356;43.526;26.534;2022-08-21T02:42:43;98386.91;;;24.18;100.00
10618;BME280;5356;43.526;26.534;2022-08-21T02:45:10;98380.78;;;24.21;100.00
10618;BME280;5356;43.526;26.534;2022-08-21T02:47:35;98379.53;;;24.18;100.00
10618;BME280;5356;43.526;26.534;2022-08-21T02:50:01;98380.19;;;24.15;100.00
10618;BME280;5356;43.526;26.534;2022-08-21T02:52:27;98383.69;;;24.16;100.00
10618;BME280;5356;43.526;26.534;2022-08-21T02:54:52;98379.84;;;24.17;100.00
10618;BME280;5356;43.526;26.534;2022-08-21T02:57:18;98385.28;;;24.17;100.00
10618;BME280;5356;43.526;26.534;2022-08-21T02:59:43;98383.22;;;24.14;100.00
10618;BME280;5356;43.526;26.534;2022-08-21T03:02:09;98376.97;;;24.13;100.00
10618;BME280;5356;43.526;26.534;2022-08-21T03:04:37;98384.53;;;24.08;100.00
10618;BME280;5356;43.526;26.534;2022-08-21T03:07:02;98379.31;;;23.94;100.00
10618;BME280;5356;43.526;26.534;2022-08-21T03:09:28;98373.88;;;23.94;100.00
10618;BME280;5356;43.526;26.534;2022-08-21T03:11:53;98379.47;;;23.97;100.00
10618;BME280;5356;43.526;26.534;2022-08-21T03:14:19;98379.00;;;23.95;100.00
10618;BME280;5356;43.526;26.534;2022-08-21T03:16:44;98373.09;;;23.93;100.00
10618;BME280;5356;43.526;26.534;2022-08-21T03:19:11;98377.88;;;23.96;100.00
10618;BME280;5356;43.526;26.534;2022-08-21T03:21:39;98377.09;;;23.96;100.00
10618;BME280;5356;43.526;26.534;2022-08-21T03:24:04;98379.47;;;23.97;100.00
10618;BME280;5356;43.526;26.534;2022-08-21T03:26:31;98380.94;;;23.95;100.00
10618;BME280;5356;43.526;26.534;2022-08-21T03:28:57;98380.78;;;23.91;100.00
10618;BME280;5356;43.526;26.534;2022-08-21T03:31:23;98376.94;;;23.92;100.00
10618;BME280;5356;43.526;26.534;2022-08-21T03:33:49;98384.63;;;23.90;100.00
10618;BME280;5356;43.526;26.534;2022-08-21T03:36:16;98382.09;;;23.85;100.00
10618;BME280;5356;43.526;26.534;2022-08-21T03:38:41;98378.88;;;23.83;100.00
10618;BME280;5356;43.526;26.534;2022-08-21T03:41:07;98377.44;;;23.86;100.00
10618;BME280;5356;43.526;26.534;2022-08-21T03:43:33;98376.47;;;23.90;100.00
10618;BME280;5356;43.526;26.534;2022-08-21T03:46:03;98380.13;;;23.94;100.00
10618;BME280;5356;43.526;26.534;2022-08-21T03:48:29;98373.75;;;23.90;100.00
10618;BME280;5356;43.526;26.534;2022-08-21T03:50:55;98376.22;;;23.74;100.00
10618;BME280;5356;43.526;26.534;2022-08-21T03:53:20;98372.84;;;23.69;100.00
10618;BME280;5356;43.526;26.534;2022-08-21T03:55:47;98367.91;;;23.71;100.00
10618;BME280;5356;43.526;26.534;2022-08-21T03:58:15;98367.78;;;23.59;100.00
10618;BME280;5356;43.526;26.534;2022-08-21T04:00:41;98371.78;;;23.61;100.00
10618;BME280;5356;43.526;26.534;2022-08-21T04:03:06;98369.84;;;23.70;100.00
10618;BME280;5356;43.526;26.534;2022-08-21T04:05:32;98364.88;;;23.72;100.00
10618;BME280;5356;43.526;26.534;2022-08-21T04:08:00;98370.47;;;23.76;100.00
10618;BME280;5356;43.526;26.534;2022-08-21T04:10:28;98371.44;;;23.71;100.00
10618;BME280;5356;43.526;26.534;2022-08-21T04:12:54;98374.63;;;23.65;100.00
10618;BME280;5356;43.526;26.534;2022-08-21T04:15:21;98373.19;;;23.67;100.00
10618;BME280;5356;43.526;26.534;2022-08-21T04:17:47;98377.03;;;23.75;100.00
10618;BME280;5356;43.526;26.534;2022-08-21T04:20:14;98372.34;;;23.84;100.00
10618;BME280;5356;43.526;26.534;2022-08-21T04:22:40;98370.06;;;23.86;100.00
10618;BME280;5356;43.526;26.534;2022-08-21T04:25:06;98376.16;;;23.83;100.00
10618;BME280;5356;43.526;26.534;2022-08-21T04:27:33;98378.09;;;23.83;100.00
10618;BME280;5356;43.526;26.534;2022-08-21T04:29:58;98371.38;;;23.80;100.00
10618;BME280;5356;43.526;26.534;2022-08-21T04:32:25;98386.06;;;23.88;100.00
10618;BME280;5356;43.526;26.534;2022-08-21T04:34:58;98377.75;;;23.93;100.00
10618;BME280;5356;43.526;26.534;2022-08-21T04:37:23;98368.13;;;23.95;100.00
10618;BME280;5356;43.526;26.534;2022-08-21T04:39:49;98375.50;;;23.95;100.00
10618;BME280;5356;43.526;26.534;2022-08-21T04:42:15;98384.16;;;23.88;100.00
10618;BME280;5356;43.526;26.534;2022-08-21T04:44:40;98381.16;;;23.81;100.00
10618;BME280;5356;43.526;26.534;2022-08-21T04:47:06;98383.66;;;23.86;100.00
10618;BME280;5356;43.526;26.534;2022-08-21T04:49:32;98390.91;;;23.82;100.00
10618;BME280;5356;43.526;26.534;2022-08-21T04:51:58;98390.72;;;23.87;100.00
10618;BME280;5356;43.526;26.534;2022-08-21T04:54:24;98387.41;;;23.82;100.00
10618;BME280;5356;43.526;26.534;2022-08-21T04:56:56;98379.84;;;23.87;100.00
10618;BME280;5356;43.526;26.534;2022-08-21T04:59:31;98372.56;;;24.00;100.00
10618;BME280;5356;43.526;26.534;2022-08-21T05:01:57;98381.63;;;24.13;100.00
10618;BME280;5356;43.526;26.534;2022-08-21T05:04:25;98370.09;;;24.16;100.00
10618;BME280;5356;43.526;26.534;2022-08-21T05:06:54;98366.69;;;24.19;100.00
10618;BME280;5356;43.526;26.534;2022-08-21T05:09:23;98372.09;;;24.28;100.00
10618;BME280;5356;43.526;26.534;2022-08-21T05:11:50;98372.50;;;24.38;100.00
10618;BME280;5356;43.526;26.534;2022-08-21T05:14:17;98367.63;;;24.53;100.00
10618;BME280;5356;43.526;26.534;2022-08-21T05:16:42;98365.50;;;24.58;100.00
10618;BME280;5356;43.526;26.534;2022-08-21T05:19:09;98364.97;;;24.65;100.00
10618;BME280;5356;43.526;26.534;2022-08-21T05:21:39;98368.06;;;24.76;100.00
10618;BME280;5356;43.526;26.534;2022-08-21T05:24:05;98372.53;;;24.80;100.00
10618;BME280;5356;43.526;26.534;2022-08-21T05:26:30;98372.47;;;24.89;100.00
10618;BME280;5356;43.526;26.534;2022-08-21T05:28:56;98372.84;;;25.00;100.00
10618;BME280;5356;43.526;26.534;2022-08-21T05:31:22;98371.50;;;25.06;100.00
10618;BME280;5356;43.526;26.534;2022-08-21T05:33:48;98378.34;;;25.12;100.00
10618;BME280;5356;43.526;26.534;2022-08-21T05:36:13;98371.34;;;25.23;100.00
10618;BME280;5356;43.526;26.534;2022-08-21T05:38:39;98365.03;;;25.31;100.00
10618;BME280;5356;43.526;26.534;2022-08-21T05:41:06;98371.47;;;25.27;100.00
10618;BME280;5356;43.526;26.534;2022-08-21T05:43:32;98365.81;;;25.32;100.00
10618;BME280;5356;43.526;26.534;2022-08-21T05:46:02;98363.66;;;25.38;100.00
10618;BME280;5356;43.526;26.534;2022-08-21T05:48:29;98371.06;;;25.49;100.00
10618;BME280;5356;43.526;26.534;2022-08-21T05:50:55;98370.97;;;25.58;100.00
10618;BME280;5356;43.526;26.534;2022-08-21T05:53:21;98381.19;;;25.61;100.00
10618;BME280;5356;43.526;26.534;2022-08-21T05:55:48;98387.38;;;25.70;100.00
10618;BME280;5356;43.526;26.534;2022-08-21T05:58:16;98384.97;;;25.81;100.00
10618;BME280;5356;43.526;26.534;2022-08-21T06:00:42;98388.75;;;25.89;100.00
10618;BME280;5356;43.526;26.534;2022-08-21T06:03:22;98383.19;;;25.97;100.00
10618;BME280;5356;43.526;26.534;2022-08-21T06:05:48;98384.31;;;26.09;100.00
10618;BME280;5356;43.526;26.534;2022-08-21T06:08:17;98388.75;;;26.13;100.00
10618;BME280;5356;43.526;26.534;2022-08-21T06:10:43;98394.53;;;26.24;100.00
10618;BME280;5356;43.526;26.534;2022-08-21T06:13:09;98387.72;;;26.30;100.00
10618;BME280;5356;43.526;26.534;2022-08-21T06:15:35;98388.84;;;26.41;100.00
10618;BME280;5356;43.526;26.534;2022-08-21T06:18:01;98389.84;;;26.49;100.00
10618;BME280;5356;43.526;26.534;2022-08-21T06:20:27;98395.56;;;26.56;100.00
10618;BME280;5356;43.526;26.534;2022-08-21T06:22:53;98397.56;;;26.72;100.00
10618;BME280;5356;43.526;26.534;2022-08-21T06:25:18;98397.56;;;26.72;100.00
10618;BME280;5356;43.526;26.534;2022-08-21T06:27:44;98396.16;;;26.78;100.00
10618;BME280;5356;43.526;26.534;2022-08-21T06:30:11;98395.44;;;26.93;100.00
10618;BME280;5356;43.526;26.534;2022-08-21T06:32:36;98394.25;;;27.06;100.00
10618;BME280;5356;43.526;26.534;2022-08-21T06:35:03;98398.28;;;27.25;100.00
10618;BME280;5356;43.526;26.534;2022-08-21T06:37:29;98403.59;;;27.34;100.00
10618;BME280;5356;43.526;26.534;2022-08-21T06:39:54;98405.47;;;27.45;100.00
10618;BME280;5356;43.526;26.534;2022-08-21T06:42:20;98397.91;;;27.54;100.00
10618;BME280;5356;43.526;26.534;2022-08-21T06:44:46;98398.88;;;27.62;100.00
10618;BME280;5356;43.526;26.534;2022-08-21T06:47:13;98406.38;;;27.65;99.11
10618;BME280;5356;43.526;26.534;2022-08-21T06:49:38;98409.16;;;27.81;99.26
10618;BME280;5356;43.526;26.534;2022-08-21T06:52:08;98404.13;;;27.83;97.51
10618;BME280;5356;43.526;26.534;2022-08-21T06:54:34;98397.50;;;27.84;97.36
10618;BME280;5356;43.526;26.534;2022-08-21T06:56:59;98408.19;;;27.89;96.42
10618;BME280;5356;43.526;26.534;2022-08-21T06:59:25;98403.69;;;27.97;95.08
10618;BME280;5356;43.526;26.534;2022-08-21T07:01:50;98407.81;;;28.07;96.17
10618;BME280;5356;43.526;26.534;2022-08-21T07:04:16;98400.72;;;28.21;94.53
10618;BME280;5356;43.526;26.534;2022-08-21T07:06:41;98396.78;;;28.38;94.00
10618;BME280;5356;43.526;26.534;2022-08-21T07:09:07;98400.31;;;28.55;92.99
10618;BME280;5356;43.526;26.534;2022-08-21T07:11:35;98394.84;;;28.74;92.83
10618;BME280;5356;43.526;26.534;2022-08-21T07:14:00;98392.34;;;28.85;92.25
10618;BME280;5356;43.526;26.534;2022-08-21T07:16:26;98398.16;;;28.83;91.42
10618;BME280;5356;43.526;26.534;2022-08-21T07:18:51;98390.84;;;28.87;90.77
10618;BME280;5356;43.526;26.534;2022-08-21T07:21:17;98388.22;;;28.95;90.22
10618;BME280;5356;43.526;26.534;2022-08-21T07:23:46;98380.22;;;29.05;89.80
10618;BME280;5356;43.526;26.534;2022-08-21T07:26:15;98383.91;;;29.13;89.04
10618;BME280;5356;43.526;26.534;2022-08-21T07:28:41;98381.16;;;29.13;88.60
10618;BME280;5356;43.526;26.534;2022-08-21T07:31:09;98381.66;;;29.19;88.03
10618;BME280;5356;43.526;26.534;2022-08-21T07:33:35;98378.25;;;29.25;87.44
10618;BME280;5356;43.526;26.534;2022-08-21T07:36:01;98373.84;;;29.21;86.96
10618;BME280;5356;43.526;26.534;2022-08-21T07:38:27;98370.09;;;29.29;85.46
10618;BME280;5356;43.526;26.534;2022-08-21T07:40:54;98367.97;;;29.42;85.00
10618;BME280;5356;43.526;26.534;2022-08-21T07:43:20;98368.13;;;29.52;84.74
10618;BME280;5356;43.526;26.534;2022-08-21T07:45:47;98369.44;;;29.59;82.36
10618;BME280;5356;43.526;26.534;2022-08-21T07:48:15;98363.13;;;29.58;80.78
10618;BME280;5356;43.526;26.534;2022-08-21T07:50:41;98361.72;;;29.64;80.88
10618;BME280;5356;43.526;26.534;2022-08-21T07:53:07;98357.72;;;29.85;80.30
10618;BME280;5356;43.526;26.534;2022-08-21T07:55:33;98362.97;;;29.93;78.13
10618;BME280;5356;43.526;26.534;2022-08-21T07:57:58;98354.03;;;30.00;76.57
10618;BME280;5356;43.526;26.534;2022-08-21T08:00:26;98352.81;;;29.97;75.06
10618;BME280;5356;43.526;26.534;2022-08-21T08:02:53;98352.50;;;30.03;75.02
10618;BME280;5356;43.526;26.534;2022-08-21T08:05:22;98357.91;;;30.22;75.54
10618;BME280;5356;43.526;26.534;2022-08-21T08:07:48;98352.25;;;30.38;75.31
10618;BME280;5356;43.526;26.534;2022-08-21T08:10:14;98358.75;;;30.56;74.50
10618;BME280;5356;43.526;26.534;2022-08-21T08:12:41;98355.38;;;30.67;74.01
10618;BME280;5356;43.526;26.534;2022-08-21T08:15:10;98354.16;;;30.64;72.41
10618;BME280;5356;43.526;26.534;2022-08-21T08:17:35;98349.88;;;30.67;72.23
10618;BME280;5356;43.526;26.534;2022-08-21T08:20:03;98344.03;;;30.72;71.69
10618;BME280;5356;43.526;26.534;2022-08-21T08:22:29;98346.56;;;30.84;71.38
10618;BME280;5356;43.526;26.534;2022-08-21T08:24:55;98340.47;;;30.71;69.46
10618;BME280;5356;43.526;26.534;2022-08-21T08:27:21;98333.75;;;30.69;70.41
10618;BME280;5356;43.526;26.534;2022-08-21T08:29:47;98334.94;;;30.68;70.83
10618;BME280;5356;43.526;26.534;2022-08-21T08:32:13;98333.50;;;30.77;69.87
10618;BME280;5356;43.526;26.534;2022-08-21T08:34:39;98333.16;;;30.82;69.66
10618;BME280;5356;43.526;26.534;2022-08-21T08:37:07;98337.09;;;30.81;67.90
10618;BME280;5356;43.526;26.534;2022-08-21T08:39:33;98336.66;;;30.79;67.83
10618;BME280;5356;43.526;26.534;2022-08-21T08:42:11;98332.03;;;30.83;67.92
10618;BME280;5356;43.526;26.534;2022-08-21T08:44:38;98331.69;;;30.89;67.36
10618;BME280;5356;43.526;26.534;2022-08-21T08:47:05;98327.75;;;30.90;66.12
10618;BME280;5356;43.526;26.534;2022-08-21T08:49:36;98314.91;;;31.01;66.17
10618;BME280;5356;43.526;26.534;2022-08-21T08:52:05;98322.38;;;31.00;65.66
10618;BME280;5356;43.526;26.534;2022-08-21T08:57:09;98307.34;;;31.31;65.60
10618;BME280;5356;43.526;26.534;2022-08-21T08:59:44;98302.69;;;31.39;64.78
10618;BME280;5356;43.526;26.534;2022-08-21T09:02:12;98307.06;;;31.40;64.78
10618;BME280;5356;43.526;26.534;2022-08-21T09:04:38;98306.94;;;31.33;63.05
10618;BME280;5356;43.526;26.534;2022-08-21T09:07:23;98300.16;;;31.20;60.97
10618;BME280;5356;43.526;26.534;2022-08-21T09:15:53;98290.53;;;31.40;61.57
10618;BME280;5356;43.526;26.534;2022-08-21T09:23:56;98278.81;;;31.50;60.27
10618;BME280;5356;43.526;26.534;2022-08-21T09:26:29;98278.56;;;31.70;60.84
10618;BME280;5356;43.526;26.534;2022-08-21T09:28:58;98268.81;;;31.83;59.75
10618;BME280;5356;43.526;26.534;2022-08-21T09:31:31;98268.16;;;32.01;59.70
10618;BME280;5356;43.526;26.534;2022-08-21T09:34:32;98269.06;;;32.26;59.40
10618;BME280;5356;43.526;26.534;2022-08-21T09:36:58;98271.09;;;32.36;57.72
10618;BME280;5356;43.526;26.534;2022-08-21T09:39:27;98273.06;;;32.39;56.48
10618;BME280;5356;43.526;26.534;2022-08-21T09:42:02;98263.25;;;32.49;55.98
10618;BME280;5356;43.526;26.534;2022-08-21T09:44:32;98266.84;;;32.64;54.71
10618;BME280;5356;43.526;26.534;2022-08-21T09:46:58;98263.34;;;32.67;54.44
10618;BME280;5356;43.526;26.534;2022-08-21T09:49:36;98255.88;;;32.85;53.96
10618;BME280;5356;43.526;26.534;2022-08-21T09:52:05;98258.25;;;32.98;53.19
10618;BME280;5356;43.526;26.534;2022-08-21T09:54:39;98253.16;;;33.00;53.53
10618;BME280;5356;43.526;26.534;2022-08-21T09:59:52;98246.88;;;33.21;52.64
10618;BME280;5356;43.526;26.534;2022-08-21T10:04:51;98245.69;;;33.25;51.00
10618;BME280;5356;43.526;26.534;2022-08-21T10:07:20;98249.25;;;33.44;50.46
10618;BME280;5356;43.526;26.534;2022-08-21T10:09:58;98245.69;;;33.54;49.99
10618;BME280;5356;43.526;26.534;2022-08-21T10:12:32;98246.06;;;33.60;50.25
10618;BME280;5356;43.526;26.534;2022-08-21T10:15:20;98242.16;;;33.61;49.28
10618;BME280;5356;43.526;26.534;2022-08-21T10:23:58;98231.50;;;33.38;48.87
10618;BME280;5356;43.526;26.534;2022-08-21T10:29:19;98225.94;;;33.45;48.49
10618;BME280;5356;43.526;26.534;2022-08-21T10:32:04;98221.56;;;33.80;47.94
10618;BME280;5356;43.526;26.534;2022-08-21T10:40:36;98218.25;;;34.28;47.59
10618;BME280;5356;43.526;26.534;2022-08-21T10:46:19;98217.81;;;34.40;46.54
10618;BME280;5356;43.526;26.534;2022-08-21T10:48:58;98219.00;;;34.39;46.18
10618;BME280;5356;43.526;26.534;2022-08-21T10:51:27;98209.63;;;34.18;46.07
10618;BME280;5356;43.526;26.534;2022-08-21T10:53:59;98208.47;;;34.05;46.33
10618;BME280;5356;43.526;26.534;2022-08-21T10:56:34;98210.50;;;33.87;45.80
10618;BME280;5356;43.526;26.534;2022-08-21T10:59:17;98200.59;;;33.96;45.95
10618;BME280;5356;43.526;26.534;2022-08-21T11:01:47;98205.34;;;33.92;45.57
10618;BME280;5356;43.526;26.534;2022-08-21T11:06:58;98202.63;;;33.89;45.18
10618;BME280;5356;43.526;26.534;2022-08-21T11:09:26;98204.88;;;34.19;44.93
10618;BME280;5356;43.526;26.534;2022-08-21T11:11:56;98199.22;;;34.44;44.50
10618;BME280;5356;43.526;26.534;2022-08-21T11:17:09;98189.22;;;34.68;43.13
10618;BME280;5356;43.526;26.534;2022-08-21T11:19:42;98185.59;;;34.75;42.75
10618;BME280;5356;43.526;26.534;2022-08-21T11:22:21;98182.34;;;34.87;43.10
10618;BME280;5356;43.526;26.534;2022-08-21T11:25:13;98184.19;;;35.04;42.58
10618;BME280;5356;43.526;26.534;2022-08-21T11:27:46;98178.72;;;34.97;41.87
10618;BME280;5356;43.526;26.534;2022-08-21T11:30:14;98173.19;;;34.97;40.84
10618;BME280;5356;43.526;26.534;2022-08-21T11:41:29;98158.91;;;34.47;40.51
10618;BME280;5356;43.526;26.534;2022-08-21T11:55:04;98134.59;;;34.79;41.02
10618;BME280;5356;43.526;26.534;2022-08-21T11:57:36;98121.81;;;34.93;41.31
10618;BME280;5356;43.526;26.534;2022-08-21T12:00:12;98118.44;;;35.16;41.35
10618;BME280;5356;43.526;26.534;2022-08-21T12:02:45;98124.66;;;35.27;41.32
10618;BME280;5356;43.526;26.534;2022-08-21T12:05:27;98129.09;;;35.21;41.17
10618;BME280;5356;43.526;26.534;2022-08-21T12:08:28;98122.81;;;35.17;41.04
10618;BME280;5356;43.526;26.534;2022-08-21T12:14:11;98103.00;;;35.52;40.02
10618;BME280;5356;43.526;26.534;2022-08-21T12:16:41;98101.03;;;35.57;40.26
10618;BME280;5356;43.526;26.534;2022-08-21T12:19:13;98098.47;;;35.69;39.74
10618;BME280;5356;43.526;26.534;2022-08-21T12:22:17;98099.84;;;35.88;39.95
10618;BME280;5356;43.526;26.534;2022-08-21T12:24:50;98099.91;;;35.85;39.61
10618;BME280;5356;43.526;26.534;2022-08-21T12:30:06;98107.09;;;35.44;39.29
10618;BME280;5356;43.526;26.534;2022-08-21T12:32:45;98105.50;;;35.05;40.01
10618;BME280;5356;43.526;26.534;2022-08-21T12:35:16;98095.78;;;34.86;40.09
10618;BME280;5356;43.526;26.534;2022-08-21T12:37:49;98092.97;;;34.90;40.27
10618;BME280;5356;43.526;26.534;2022-08-21T12:42:50;98094.72;;;34.70;40.55
10618;BME280;5356;43.526;26.534;2022-08-21T12:45:23;98095.63;;;34.56;40.10
10618;BME280;5356;43.526;26.534;2022-08-21T12:50:29;98082.03;;;34.16;40.50
10618;BME280;5356;43.526;26.534;2022-08-21T12:53:04;98087.63;;;34.09;41.58
10618;BME280;5356;43.526;26.534;2022-08-21T12:55:33;98085.28;;;34.04;40.95
10618;BME280;5356;43.526;26.534;2022-08-21T12:57:59;98082.91;;;33.99;41.09
10618;BME280;5356;43.526;26.534;2022-08-21T13:00:28;98081.75;;;33.96;41.18
10618;BME280;5356;43.526;26.534;2022-08-21T13:02:55;98084.94;;;33.95;41.28
10618;BME280;5356;43.526;26.534;2022-08-21T13:05:32;98083.72;;;33.96;40.54
10618;BME280;5356;43.526;26.534;2022-08-21T13:07:59;98081.09;;;33.74;40.90
10618;BME280;5356;43.526;26.534;2022-08-21T13:10:31;98084.59;;;33.79;41.14
10618;BME280;5356;43.526;26.534;2022-08-21T13:12:59;98083.78;;;33.85;40.91
10618;BME280;5356;43.526;26.534;2022-08-21T13:15:31;98079.84;;;33.83;41.32
10618;BME280;5356;43.526;26.534;2022-08-21T13:17:57;98081.47;;;33.80;41.25
10618;BME280;5356;43.526;26.534;2022-08-21T13:20:33;98073.44;;;34.07;41.03
10618;BME280;5356;43.526;26.534;2022-08-21T13:23:01;98078.09;;;34.14;40.27
10618;BME280;5356;43.526;26.534;2022-08-21T13:25:29;98074.81;;;34.37;39.85
10618;BME280;5356;43.526;26.534;2022-08-21T13:28:04;98074.81;;;34.37;40.37
10618;BME280;5356;43.526;26.534;2022-08-21T13:30:31;98073.66;;;34.34;40.62
10618;BME280;5356;43.526;26.534;2022-08-21T13:33:03;98070.53;;;34.29;40.93
10618;BME280;5356;43.526;26.534;2022-08-21T13:35:36;98074.91;;;34.23;40.39
10618;BME280;5356;43.526;26.534;2022-08-21T13:38:03;98076.09;;;34.22;40.81
10618;BME280;5356;43.526;26.534;2022-08-21T13:40:48;98072.94;;;34.19;40.51
10618;BME280;5356;43.526;26.534;2022-08-21T13:43:17;98073.03;;;34.05;40.27
10618;BME280;5356;43.526;26.534;2022-08-21T13:45:49;98070.72;;;33.93;40.54
10618;BME280;5356;43.526;26.534;2022-08-21T13:48:15;98061.22;;;33.94;40.41
10618;BME280;5356;43.526;26.534;2022-08-21T13:50:42;98073.47;;;33.93;40.84
10618;BME280;5356;43.526;26.534;2022-08-21T13:53:27;98075.06;;;33.90;40.60
10618;BME280;5356;43.526;26.534;2022-08-21T13:55:53;98073.59;;;33.75;41.05
10618;BME280;5356;43.526;26.534;2022-08-21T13:58:43;98072.00;;;33.74;41.76
10618;BME280;5356;43.526;26.534;2022-08-21T14:04:38;98067.72;;;33.59;42.35
10618;BME280;5356;43.526;26.534;2022-08-21T14:07:15;98073.28;;;33.55;41.85
10618;BME280;5356;43.526;26.534;2022-08-21T14:09:42;98071.69;;;33.50;41.86
10618;BME280;5356;43.526;26.534;2022-08-21T14:12:40;98067.75;;;33.48;41.97
10618;BME280;5356;43.526;26.534;2022-08-21T14:15:07;98070.09;;;33.46;41.93
10618;BME280;5356;43.526;26.534;2022-08-21T14:17:37;98063.81;;;33.42;41.51
10618;BME280;5356;43.526;26.534;2022-08-21T14:20:05;98062.63;;;33.43;41.68
10618;BME280;5356;43.526;26.534;2022-08-21T14:25:15;98073.34;;;33.26;41.59